createdAt,value
2023-02-19T00:00:02.631Z,50.875298
2023-02-19T00:01:02.629Z,50.875191
2023-02-19T00:02:02.626Z,50.875278
2023-02-19T04:27:50.468Z,50.875580
2023-02-19T04:28:50.461Z,50.875568
2023-02-19T04:29:50.475Z,50.875847
2023-02-19T04:30:50.451Z,50.875584
2023-02-19T04:31:50.470Z,50.875534
2023-02-19T04:32:50.414Z,50.875950
2023-02-19T04:33:50.397Z,50.875999
2023-02-19T04:34:51.213Z,50.875378
2023-02-19T04:35:50.398Z,50.875557
2023-02-19T04:36:50.412Z,50.875656
2023-02-19T04:37:50.398Z,50.875484
2023-02-19T04:38:50.371Z,50.875179
2023-02-19T04:39:50.376Z,50.875179
2023-02-19T04:40:50.373Z,50.875385
2023-02-19T04:41:50.346Z,50.875561
2023-02-19T04:42:50.361Z,50.875534
2023-02-19T04:43:50.367Z,50.875538
2023-02-19T04:44:50.316Z,50.875389
2023-02-19T04:45:50.322Z,50.875229
2023-02-19T04:46:50.289Z,50.875351
2023-02-19T04:47:50.253Z,50.875523
2023-02-19T04:48:50.282Z,50.875542
2023-02-19T04:49:50.276Z,50.875538
2023-02-19T04:50:50.254Z,50.875538
2023-02-19T04:51:50.238Z,50.875538
2023-02-19T04:52:50.237Z,50.875538
2023-02-19T04:53:50.207Z,50.875538
2023-02-19T04:54:50.216Z,50.875538
2023-02-19T04:55:50.174Z,50.875538
2023-02-19T04:56:50.203Z,50.875538
2023-02-19T04:57:50.177Z,50.875538
2023-02-19T04:58:50.180Z,50.875381
2023-02-19T04:59:50.193Z,50.876087
2023-02-19T05:00:50.138Z,50.875557
2023-02-19T05:01:50.238Z,50.875488
2023-02-19T05:02:50.110Z,50.875427
2023-02-19T05:03:50.093Z,50.875427
2023-02-19T05:04:50.099Z,50.875427
2023-02-19T05:05:50.065Z,50.875427
2023-02-19T05:06:50.067Z,50.875427
2023-02-19T05:07:50.080Z,50.875427
2023-02-19T05:08:50.062Z,50.875427
2023-02-19T05:09:50.065Z,50.875427
2023-02-19T05:10:50.035Z,50.875427
2023-02-19T05:11:50.042Z,50.875427
2023-02-19T05:12:50.048Z,50.875427
2023-02-19T05:13:50.009Z,50.875427
2023-02-19T05:14:50.029Z,50.875427
2023-02-19T05:15:50.015Z,50.875427
2023-02-19T05:16:49.982Z,50.875427
2023-02-19T05:17:49.963Z,50.875427
2023-02-19T05:18:49.947Z,50.875427
2023-02-19T05:19:49.953Z,50.875542
2023-02-19T05:20:49.924Z,50.875412
2023-02-19T05:21:49.929Z,50.875412
2023-02-19T05:22:49.908Z,50.875534
2023-02-19T05:23:49.954Z,50.875385
2023-02-19T05:24:49.919Z,50.875332
2023-02-19T05:25:49.903Z,50.875267
2023-02-19T05:26:49.900Z,50.875343
2023-02-19T05:27:49.916Z,50.875362
2023-02-19T05:28:49.876Z,50.875420
2023-02-19T05:29:49.856Z,50.875324
2023-02-19T05:30:49.944Z,50.875195
2023-02-19T05:31:49.963Z,50.875031
2023-02-19T05:32:49.821Z,50.875263
2023-02-19T05:33:49.880Z,50.875362
2023-02-19T05:34:49.810Z,50.875416
2023-02-19T05:35:49.821Z,50.875404
2023-02-19T05:36:49.774Z,50.875351
2023-02-19T05:37:49.764Z,50.875351
2023-02-19T05:38:49.741Z,50.875359
2023-02-19T05:39:49.766Z,50.875389
2023-02-19T05:40:49.761Z,50.875515
2023-02-19T05:41:49.757Z,50.875504
2023-02-19T05:42:49.713Z,50.875225
2023-02-19T05:43:49.701Z,50.875156
2023-02-19T05:44:49.717Z,50.875240
2023-02-19T05:45:49.726Z,50.875332
2023-02-19T05:46:49.660Z,50.875404
2023-02-19T05:47:49.666Z,50.875393
2023-02-19T05:48:49.644Z,50.875465
2023-02-19T05:49:49.652Z,50.875217
2023-02-19T05:50:49.636Z,50.875134
2023-02-19T05:51:49.676Z,50.875462
2023-02-19T05:52:49.621Z,50.875374
2023-02-19T05:53:49.611Z,50.875355
2023-02-19T05:54:49.626Z,50.875225
2023-02-19T05:55:49.614Z,50.875263
2023-02-19T05:56:49.569Z,50.875221
2023-02-19T05:57:49.604Z,50.875313
2023-02-19T05:58:49.568Z,50.875397
2023-02-19T05:59:49.574Z,50.875401
2023-02-19T06:00:49.559Z,50.875443
2023-02-19T06:01:49.555Z,50.875530
2023-02-19T06:02:49.628Z,50.875412
2023-02-19T06:03:49.564Z,50.875298
2023-02-19T06:04:49.533Z,50.875286
2023-02-19T06:05:49.526Z,50.875153
2023-02-19T06:06:49.504Z,50.875221
2023-02-19T06:07:49.481Z,50.875381
2023-02-19T06:08:49.459Z,50.875324
2023-02-19T06:09:49.479Z,50.875359
2023-02-19T06:10:49.457Z,50.875351
2023-02-19T06:11:49.449Z,50.875210
2023-02-19T06:12:49.421Z,50.875313
2023-02-19T06:13:49.398Z,50.875294
2023-02-19T06:14:49.408Z,50.875244
2023-02-19T06:15:49.429Z,50.875458
2023-02-19T06:16:49.414Z,50.875523
2023-02-19T06:17:49.379Z,50.875931
2023-02-19T06:18:49.399Z,50.875610
2023-02-19T06:19:49.350Z,50.875504
2023-02-19T06:20:49.330Z,50.875462
2023-02-19T06:21:49.352Z,50.875446
2023-02-19T06:22:49.333Z,50.875488
2023-02-19T06:23:49.330Z,50.875374
2023-02-19T06:24:49.349Z,50.875347
2023-02-19T06:25:50.317Z,50.875252
2023-02-19T06:26:49.303Z,50.875546
2023-02-19T06:27:49.284Z,50.875374
2023-02-19T06:28:49.249Z,50.875343
2023-02-19T06:29:49.251Z,50.875244
2023-02-19T06:30:51.474Z,50.875351
2023-02-19T06:31:50.312Z,50.875259
2023-02-19T06:32:49.232Z,50.875278
2023-02-19T06:33:49.207Z,50.875267
2023-02-19T06:34:49.206Z,50.875229
2023-02-19T06:35:49.211Z,50.875168
2023-02-19T06:36:49.224Z,50.875164
2023-02-19T06:37:49.205Z,50.875355
2023-02-19T06:38:49.168Z,50.875351
2023-02-19T06:39:49.164Z,50.875317
2023-02-19T06:40:49.150Z,50.875195
2023-02-19T06:41:49.135Z,50.875172
2023-02-19T06:42:49.140Z,50.875183
2023-02-19T06:43:49.131Z,50.875080
2023-02-19T06:44:49.111Z,50.875160
2023-02-19T06:45:49.092Z,50.875286
2023-02-19T06:46:49.140Z,50.875427
2023-02-19T06:47:49.075Z,50.875420
2023-02-19T06:48:49.078Z,50.875362
2023-02-19T06:49:49.123Z,50.875298
2023-02-19T06:50:49.057Z,50.875351
2023-02-19T06:51:49.045Z,50.875423
2023-02-19T06:52:49.070Z,50.875462
2023-02-19T06:53:49.037Z,50.875454
2023-02-19T06:54:49.037Z,50.874496
2023-02-19T06:55:48.991Z,50.875126
2023-02-19T06:56:49.011Z,50.875481
2023-02-19T06:57:48.974Z,50.875351
2023-02-19T06:58:48.973Z,50.875301
2023-02-19T06:59:48.971Z,50.875355
2023-02-19T07:00:48.999Z,50.875404
2023-02-19T07:01:48.978Z,50.875469
2023-02-19T07:02:48.928Z,50.875484
2023-02-19T07:03:48.946Z,50.875324
2023-02-19T07:04:48.888Z,50.875328
2023-02-19T07:05:48.889Z,50.875332
2023-02-19T07:06:48.889Z,50.875378
2023-02-19T07:07:48.888Z,50.875511
2023-02-19T07:08:48.854Z,50.875347
2023-02-19T07:09:48.828Z,50.875282
2023-02-19T07:10:48.848Z,50.875362
2023-02-19T07:11:48.836Z,50.875511
2023-02-19T07:12:48.790Z,50.875465
2023-02-19T07:13:49.799Z,50.875515
2023-02-19T07:14:48.806Z,50.875469
2023-02-19T07:15:50.521Z,50.875435
2023-02-19T07:16:48.796Z,50.875504
2023-02-19T07:17:48.786Z,50.875492
2023-02-19T07:18:48.764Z,50.875546
2023-02-19T07:19:48.735Z,50.875530
2023-02-19T07:20:48.718Z,50.875435
2023-02-19T07:21:48.756Z,50.875519
2023-02-19T07:22:48.705Z,50.875481
2023-02-19T07:23:48.695Z,50.875404
2023-02-19T07:24:48.700Z,50.875439
2023-02-19T07:25:48.685Z,50.875412
2023-02-19T07:26:48.731Z,50.875336
2023-02-19T07:27:48.673Z,50.875362
2023-02-19T07:28:48.656Z,50.875618
2023-02-19T07:29:48.647Z,50.875610
2023-02-19T07:30:48.654Z,50.875374
2023-02-19T07:31:48.660Z,50.875309
2023-02-19T07:32:48.634Z,50.875607
2023-02-19T07:33:48.620Z,50.875614
2023-02-19T07:34:48.580Z,50.875587
2023-02-19T07:35:48.599Z,50.875599
2023-02-19T07:36:48.612Z,50.875637
2023-02-19T07:37:48.576Z,50.875362
2023-02-19T07:38:48.560Z,50.875420
2023-02-19T07:39:48.537Z,50.875610
2023-02-19T07:40:48.562Z,50.875740
2023-02-19T07:41:48.529Z,50.875519
2023-02-19T07:42:48.506Z,50.875538
2023-02-19T07:43:48.495Z,50.875816
2023-02-19T07:44:48.505Z,50.875816
2023-02-19T07:45:48.491Z,50.875816
2023-02-19T07:46:48.503Z,50.875271
2023-02-19T07:47:48.474Z,50.875328
2023-02-19T07:48:48.466Z,50.875538
2023-02-19T07:49:48.443Z,50.875381
2023-02-19T07:50:48.434Z,50.875336
2023-02-19T07:51:48.474Z,50.875401
2023-02-19T07:52:48.413Z,50.875355
2023-02-19T07:53:48.408Z,50.875332
2023-02-19T07:54:48.398Z,50.875401
2023-02-19T07:55:48.430Z,50.873753
2023-02-19T07:56:48.422Z,50.873821
2023-02-19T07:57:48.375Z,50.873821
2023-02-19T07:58:48.360Z,50.873821
2023-02-19T07:59:48.321Z,50.873821
2023-02-19T08:00:48.408Z,50.873821
2023-02-19T08:01:48.353Z,50.875389
2023-02-19T08:02:48.305Z,50.875313
2023-02-19T08:03:50.538Z,50.875359
2023-02-19T08:04:49.313Z,50.875431
2023-02-19T08:05:48.335Z,50.875469
2023-02-19T08:06:48.255Z,50.875458
2023-02-19T08:07:48.258Z,50.875446
2023-02-19T08:08:48.251Z,50.875473
2023-02-19T08:09:48.251Z,50.875362
2023-02-19T08:10:48.253Z,50.875381
2023-02-19T08:11:48.228Z,50.875290
2023-02-19T08:12:48.226Z,50.875282
2023-02-19T08:13:48.202Z,50.875301
2023-02-19T08:14:48.181Z,50.875301
2023-02-19T08:15:48.182Z,50.875278
2023-02-19T08:16:48.217Z,50.875313
2023-02-19T08:17:48.166Z,50.875271
2023-02-19T08:18:48.153Z,50.875294
2023-02-19T08:19:48.125Z,50.875320
2023-02-19T08:20:48.125Z,50.875298
2023-02-19T08:21:48.110Z,50.875393
2023-02-19T08:22:48.148Z,50.875534
2023-02-19T08:23:50.655Z,50.875607
2023-02-19T08:24:48.067Z,50.875759
2023-02-19T08:25:48.138Z,50.875801
2023-02-19T08:26:48.069Z,50.875347
2023-02-19T08:27:48.072Z,50.875217
2023-02-19T08:28:48.032Z,50.875618
2023-02-19T08:29:49.041Z,50.875462
2023-02-19T08:30:48.138Z,50.875439
2023-02-19T08:31:48.149Z,50.875427
2023-02-19T08:32:47.993Z,50.875366
2023-02-19T08:33:48.014Z,50.875397
2023-02-19T08:34:47.969Z,50.875309
2023-02-19T08:35:47.987Z,50.875397
2023-02-19T08:36:48.005Z,50.875473
2023-02-19T08:37:47.962Z,50.875538
2023-02-19T08:38:47.957Z,50.875504
2023-02-19T08:39:47.955Z,50.875481
2023-02-19T08:40:47.933Z,50.875515
2023-02-19T08:41:47.952Z,50.875420
2023-02-19T08:42:47.939Z,50.875309
2023-02-19T08:43:47.890Z,50.875404
2023-02-19T08:44:47.900Z,50.875500
2023-02-19T08:45:47.928Z,50.875500
2023-02-19T08:46:47.888Z,50.875500
2023-02-19T08:47:47.842Z,50.875500
2023-02-19T08:48:47.868Z,50.875500
2023-02-19T08:49:47.840Z,50.875500
2023-02-19T08:50:47.830Z,50.875500
2023-02-19T08:51:47.814Z,50.875500
2023-02-19T08:52:47.795Z,50.875500
2023-02-19T08:53:47.836Z,50.875500
2023-02-19T08:54:47.776Z,50.875500
2023-02-19T08:55:47.744Z,50.875500
2023-02-19T08:56:47.775Z,50.875500
2023-02-19T08:57:49.771Z,50.875500
2023-02-19T08:58:48.765Z,50.875500
2023-02-19T08:59:47.723Z,50.875500
2023-02-19T09:00:47.720Z,50.875500
2023-02-19T09:01:47.749Z,50.875500
2023-02-19T09:02:47.683Z,50.875427
2023-02-19T09:03:47.763Z,50.875256
2023-02-19T09:04:47.680Z,50.875328
2023-02-19T09:05:47.713Z,50.875473
2023-02-19T09:06:47.705Z,50.875473
2023-02-19T09:07:47.635Z,50.875473
2023-02-19T09:08:47.650Z,50.875103
2023-02-19T09:09:47.641Z,50.875050
2023-02-19T09:10:47.599Z,50.875050
2023-02-19T09:11:49.296Z,50.875298
2023-02-19T09:12:48.597Z,50.875301
2023-02-19T09:13:47.594Z,50.875309
2023-02-19T09:14:47.624Z,50.875355
2023-02-19T09:15:47.605Z,50.875221
2023-02-19T09:16:47.576Z,50.875473
2023-02-19T09:17:47.548Z,50.875412
2023-02-19T09:18:47.534Z,50.875412
2023-02-19T09:19:50.607Z,50.875393
2023-02-19T09:20:48.515Z,50.875324
2023-02-19T09:21:47.500Z,50.875435
2023-02-19T09:22:47.503Z,50.875427
2023-02-19T09:23:47.502Z,50.875481
2023-02-19T09:24:47.462Z,50.875450
2023-02-19T09:25:47.481Z,50.875229
2023-02-19T09:26:47.465Z,50.875378
2023-02-19T09:27:47.473Z,50.875477
2023-02-19T09:28:47.459Z,50.875561
2023-02-19T09:29:47.430Z,50.875443
2023-02-19T09:30:50.480Z,50.875431
2023-02-19T09:31:47.573Z,50.875305
2023-02-19T09:32:47.405Z,50.875416
2023-02-19T09:33:47.438Z,50.875496
2023-02-19T09:34:47.371Z,50.875439
2023-02-19T09:35:47.392Z,50.875370
2023-02-19T09:36:47.379Z,50.875511
2023-02-19T09:37:47.353Z,50.875511
2023-02-19T09:38:48.189Z,50.875511
2023-02-19T09:39:47.331Z,50.875511
2023-02-19T09:40:47.305Z,50.875511
2023-02-19T09:41:47.318Z,50.874737
2023-02-19T09:42:47.297Z,50.875584
2023-02-19T09:43:47.287Z,50.879463
2023-02-19T09:44:47.308Z,50.880402
2023-02-19T09:45:47.276Z,50.896305
2023-02-19T09:46:47.312Z,50.913494
2023-02-19T09:47:48.047Z,50.919628
2023-02-19T09:48:47.270Z,50.919628
2023-02-19T09:49:47.236Z,50.964329
2023-02-19T09:50:48.081Z,50.984734
2023-02-19T09:51:47.212Z,51.010185
2023-02-19T09:52:47.193Z,51.040855
2023-02-19T09:53:47.217Z,51.066704
2023-02-19T09:54:47.216Z,51.101746
2023-02-19T09:55:47.183Z,51.101746
2023-02-19T09:56:47.157Z,51.101746
2023-02-19T09:57:47.152Z,51.101746
2023-02-19T09:58:47.168Z,51.101746
2023-02-19T09:59:47.111Z,51.101746
2023-02-19T10:00:47.115Z,51.101746
2023-02-19T10:01:47.149Z,51.101746
2023-02-19T10:02:47.114Z,51.101746
2023-02-19T10:03:47.137Z,51.101746
2023-02-19T10:04:47.143Z,51.101746
2023-02-19T10:05:47.066Z,51.101746
2023-02-19T10:06:47.038Z,51.101746
2023-02-19T10:07:47.096Z,51.101746
2023-02-19T10:08:47.048Z,51.101746
2023-02-19T10:09:47.054Z,51.101746
2023-02-19T10:10:47.044Z,51.101746
2023-02-19T10:11:47.010Z,51.101746
2023-02-19T10:12:46.992Z,51.101746
2023-02-19T10:13:46.993Z,51.101746
2023-02-19T10:14:47.014Z,51.101746
2023-02-19T10:15:47.018Z,51.101746
2023-02-19T10:16:46.973Z,51.101746
2023-02-19T10:17:46.954Z,51.101746
2023-02-19T10:18:46.946Z,51.101746
2023-02-19T10:19:46.971Z,51.101746
2023-02-19T10:20:46.936Z,51.101746
2023-02-19T10:21:46.921Z,50.875656
2023-02-19T10:22:46.897Z,50.875610
2023-02-19T10:23:46.927Z,50.875610
2023-02-19T10:24:46.921Z,50.875717
2023-02-19T10:25:46.869Z,50.875553
2023-02-19T10:26:46.896Z,50.875710
2023-02-19T10:27:46.879Z,50.875755
2023-02-19T10:28:46.894Z,50.875755
2023-02-19T10:29:46.869Z,50.875675
2023-02-19T10:30:46.827Z,50.875641
2023-02-19T10:31:46.994Z,50.875652
2023-02-19T10:32:46.802Z,50.875618
2023-02-19T10:33:46.799Z,50.875668
2023-02-19T10:34:46.803Z,50.875725
2023-02-19T10:35:46.778Z,50.875679
2023-02-19T10:36:46.784Z,50.875404
2023-02-19T10:37:46.769Z,50.875423
2023-02-19T10:38:46.751Z,50.875389
2023-02-19T10:39:46.760Z,50.875366
2023-02-19T10:40:46.724Z,50.875332
2023-02-19T10:41:46.702Z,50.875298
2023-02-19T10:42:46.733Z,50.875389
2023-02-19T10:43:46.712Z,50.875626
2023-02-19T10:44:46.706Z,50.875332
2023-02-19T10:45:46.676Z,50.875523
2023-02-19T10:46:46.726Z,50.875626
2023-02-19T10:47:46.680Z,50.875839
2023-02-19T10:48:46.647Z,50.875740
2023-02-19T10:49:46.649Z,50.875759
2023-02-19T10:50:46.643Z,50.875793
2023-02-19T10:51:46.615Z,50.875896
2023-02-19T10:52:46.605Z,50.875858
2023-02-19T10:53:46.624Z,50.875885
2023-02-19T10:54:46.632Z,50.876022
2023-02-19T10:55:46.590Z,50.876373
2023-02-19T10:56:46.598Z,50.876289
2023-02-19T10:57:46.561Z,50.876629
2023-02-19T10:58:48.006Z,50.876804
2023-02-19T10:59:46.629Z,50.876984
2023-02-19T11:00:47.237Z,50.876942
2023-02-19T11:01:46.599Z,50.877258
2023-02-19T11:02:46.567Z,50.877350
2023-02-19T11:03:47.084Z,50.877533
2023-02-19T11:04:46.710Z,50.877609
2023-02-19T11:05:46.638Z,50.877930
2023-02-19T11:06:46.499Z,50.878170
2023-02-19T11:07:46.500Z,50.878159
2023-02-19T11:08:46.526Z,50.878159
2023-02-19T11:09:46.578Z,50.878159
2023-02-19T11:10:46.536Z,50.878159
2023-02-19T11:11:46.523Z,50.878159
2023-02-19T11:12:46.555Z,50.878159
2023-02-19T11:13:46.486Z,50.878159
2023-02-19T11:14:46.465Z,50.878159
2023-02-19T11:15:46.487Z,50.878159
2023-02-19T11:16:46.489Z,50.878159
2023-02-19T11:17:46.469Z,50.878159
2023-02-19T11:18:46.393Z,50.878159
2023-02-19T11:19:46.429Z,50.878159
2023-02-19T11:20:46.444Z,50.878159
2023-02-19T11:21:46.422Z,50.878159
2023-02-19T11:22:46.424Z,50.878159
2023-02-19T11:23:46.390Z,50.878159
2023-02-19T11:24:46.431Z,50.878159
2023-02-19T11:25:46.366Z,50.878159
2023-02-19T11:26:46.366Z,50.878159
2023-02-19T11:27:46.392Z,50.878159
2023-02-19T11:28:46.371Z,50.878159
2023-02-19T11:29:46.330Z,50.878159
2023-02-19T11:30:46.362Z,50.878159
2023-02-19T11:31:46.428Z,50.878159
2023-02-19T11:32:46.282Z,50.878159
2023-02-19T11:33:46.349Z,50.878159
2023-02-19T11:34:46.250Z,50.878159
2023-02-19T11:35:46.318Z,50.878159
2023-02-19T11:36:46.244Z,50.878159
2023-02-19T11:37:46.304Z,50.878159
2023-02-19T11:38:46.163Z,50.878159
2023-02-19T11:39:46.157Z,50.878159
2023-02-19T11:40:46.219Z,50.878159
2023-02-19T11:41:46.173Z,50.878159
2023-02-19T11:42:46.166Z,50.878159
2023-02-19T11:43:46.108Z,50.878159
2023-02-19T11:44:46.129Z,50.878159
2023-02-19T11:45:46.101Z,50.878159
2023-02-19T11:46:46.182Z,50.878159
2023-02-19T11:47:46.062Z,50.878159
2023-02-19T11:48:46.057Z,50.878159
2023-02-19T11:49:46.060Z,50.878159
2023-02-19T11:50:46.071Z,50.878159
2023-02-19T11:51:49.503Z,50.878159
2023-02-19T11:52:48.082Z,50.878159
2023-02-19T11:53:48.089Z,50.878159
2023-02-19T11:54:45.987Z,50.878159
2023-02-19T11:55:46.021Z,50.878159
2023-02-19T11:56:46.006Z,50.878159
2023-02-19T11:57:45.987Z,50.878159
2023-02-19T11:58:45.945Z,50.878159
2023-02-19T11:59:45.971Z,50.876587
2023-02-19T12:00:46.968Z,50.875473
2023-02-19T12:01:45.938Z,50.875397
2023-02-19T12:02:45.908Z,50.875385
2023-02-19T12:03:45.959Z,50.875412
2023-02-19T12:04:45.910Z,50.875343
2023-02-19T12:05:45.878Z,50.875378
2023-02-19T12:06:45.877Z,50.875347
2023-02-19T12:07:45.866Z,50.875576
2023-02-19T12:08:45.868Z,50.874691
2023-02-19T12:09:45.837Z,50.872135
2023-02-19T12:10:45.836Z,50.872856
2023-02-19T12:11:46.665Z,50.874187
2023-02-19T12:12:45.822Z,50.875130
2023-02-19T12:13:45.836Z,50.875294
2023-02-19T12:14:45.824Z,50.875336
2023-02-19T12:15:45.838Z,50.875507
2023-02-19T12:16:45.919Z,50.875439
2023-02-19T12:17:45.760Z,50.875355
2023-02-19T12:18:45.795Z,50.875336
2023-02-19T12:19:45.771Z,50.875362
2023-02-19T12:20:45.795Z,50.875313
2023-02-19T12:21:45.723Z,50.875343
2023-02-19T12:22:45.693Z,50.875381
2023-02-19T12:23:45.705Z,50.875343
2023-02-19T12:24:45.685Z,50.875393
2023-02-19T12:25:45.684Z,50.875290
2023-02-19T12:26:45.690Z,50.875408
2023-02-19T12:27:45.650Z,50.875435
2023-02-19T12:28:45.648Z,50.875366
2023-02-19T12:29:45.626Z,50.875278
2023-02-19T12:30:46.697Z,50.875374
2023-02-19T12:31:45.676Z,50.875320
2023-02-19T12:32:45.593Z,50.875362
2023-02-19T12:33:45.591Z,50.875408
2023-02-19T12:34:45.579Z,50.875526
2023-02-19T12:35:45.592Z,50.875427
2023-02-19T12:36:45.595Z,50.875355
2023-02-19T12:37:45.575Z,50.875370
2023-02-19T12:38:45.543Z,50.875481
2023-02-19T12:39:45.522Z,50.875378
2023-02-19T12:40:45.547Z,50.875332
2023-02-19T12:41:45.495Z,50.875336
2023-02-19T12:42:45.486Z,50.875378
2023-02-19T12:43:45.477Z,50.875473
2023-02-19T12:44:45.465Z,50.875450
2023-02-19T12:45:45.512Z,50.875397
2023-02-19T12:46:45.459Z,50.875206
2023-02-19T12:47:45.460Z,50.875256
2023-02-19T12:48:45.436Z,50.875526
2023-02-19T12:49:47.151Z,50.875355
2023-02-19T12:50:46.432Z,50.875366
2023-02-19T12:51:45.400Z,50.875374
2023-02-19T12:52:45.447Z,50.875412
2023-02-19T12:53:45.414Z,50.875389
2023-02-19T12:54:45.375Z,50.875381
2023-02-19T12:55:45.389Z,50.875309
2023-02-19T12:56:45.375Z,50.875324
2023-02-19T12:57:45.355Z,50.875431
2023-02-19T12:58:45.366Z,50.875290
2023-02-19T12:59:45.319Z,50.875500
2023-02-19T13:00:45.292Z,50.875809
2023-02-19T13:01:45.326Z,50.875641
2023-02-19T13:02:45.295Z,50.875423
2023-02-19T13:03:45.576Z,50.875546
2023-02-19T13:04:45.316Z,50.875412
2023-02-19T13:05:45.328Z,50.875404
2023-02-19T13:06:45.335Z,50.875439
2023-02-19T13:07:45.280Z,50.875687
2023-02-19T13:09:03.600Z,50.875957
2023-02-19T13:09:47.292Z,50.875938
2023-02-19T13:10:45.261Z,50.875469
2023-02-19T13:11:45.282Z,50.875549
2023-02-19T13:12:45.267Z,50.875515
2023-02-19T13:13:45.278Z,50.875484
2023-02-19T13:14:45.277Z,50.875751
2023-02-19T13:15:45.273Z,50.875759
2023-02-19T13:16:45.285Z,50.875488
2023-02-19T13:17:45.328Z,50.875580
2023-02-19T13:18:45.198Z,50.875572
2023-02-19T13:19:45.249Z,50.875523
2023-02-19T13:20:45.221Z,50.875484
2023-02-19T13:21:45.207Z,50.875477
2023-02-19T13:22:45.196Z,50.875477
2023-02-19T13:23:45.201Z,50.875534
2023-02-19T13:24:45.309Z,50.875385
2023-02-19T13:25:45.117Z,50.875549
2023-02-19T13:26:46.122Z,50.875671
2023-02-19T13:27:45.104Z,50.875549
2023-02-19T13:28:45.088Z,50.875637
2023-02-19T13:29:45.171Z,50.875484
2023-02-19T13:30:45.224Z,50.875492
2023-02-19T13:31:45.298Z,50.875977
2023-02-19T13:32:45.042Z,50.876152
2023-02-19T13:33:45.103Z,50.876545
2023-02-19T13:34:45.036Z,50.876480
2023-02-19T13:35:45.070Z,50.876003
2023-02-19T13:36:45.046Z,50.875988
2023-02-19T13:37:44.992Z,50.875988
2023-02-19T13:38:45.016Z,50.875679
2023-02-19T13:39:44.970Z,50.875912
2023-02-19T13:40:45.005Z,50.876492
2023-02-19T13:41:44.962Z,50.876484
2023-02-19T13:42:44.946Z,50.876396
2023-02-19T13:43:44.936Z,50.876217
2023-02-19T13:44:44.925Z,50.875813
2023-02-19T13:45:44.939Z,50.875511
2023-02-19T13:46:44.906Z,50.876259
2023-02-19T13:47:45.906Z,50.875935
2023-02-19T13:48:44.876Z,50.875568
2023-02-19T13:49:44.897Z,50.875340
2023-02-19T13:50:44.895Z,50.875439
2023-02-19T13:51:44.904Z,50.875900
2023-02-19T13:52:44.919Z,50.875523
2023-02-19T13:53:44.853Z,50.875496
2023-02-19T13:54:44.900Z,50.875374
2023-02-19T13:55:44.819Z,50.875198
2023-02-19T13:56:44.839Z,50.875237
2023-02-19T13:57:44.862Z,50.875401
2023-02-19T13:58:44.780Z,50.875172
2023-02-19T13:59:44.810Z,50.875214
2023-02-19T14:00:44.746Z,50.875427
2023-02-19T14:01:44.786Z,50.875427
2023-02-19T14:02:44.840Z,50.875488
2023-02-19T14:03:44.873Z,50.875385
2023-02-19T14:04:44.806Z,50.875404
2023-02-19T14:05:44.696Z,50.875507
2023-02-19T14:06:44.734Z,50.875515
2023-02-19T14:07:44.706Z,50.875343
2023-02-19T14:08:44.813Z,50.875420
2023-02-19T14:09:44.771Z,50.875595
2023-02-19T14:10:44.759Z,50.875561
2023-02-19T14:11:44.657Z,50.875622
2023-02-19T14:12:44.636Z,50.875587
2023-02-19T14:13:44.626Z,50.875622
2023-02-19T14:14:44.658Z,50.875732
2023-02-19T14:15:44.685Z,50.875771
2023-02-19T14:16:44.613Z,50.875710
2023-02-19T14:17:44.652Z,50.875603
2023-02-19T14:18:44.609Z,50.875412
2023-02-19T14:19:44.584Z,50.875431
2023-02-19T14:20:44.601Z,50.875385
2023-02-19T14:21:44.591Z,50.875423
2023-02-19T14:22:44.585Z,50.875313
2023-02-19T14:23:44.529Z,50.875610
2023-02-19T14:24:44.507Z,50.875435
2023-02-19T14:25:44.515Z,50.875515
2023-02-19T14:26:44.534Z,50.875500
2023-02-19T14:27:44.508Z,50.875286
2023-02-19T14:28:44.529Z,50.875328
2023-02-19T14:29:44.469Z,50.875351
2023-02-19T14:30:44.497Z,50.875584
2023-02-19T14:31:44.590Z,50.875416
2023-02-19T14:32:47.454Z,50.875404
2023-02-19T14:33:45.464Z,50.875275
2023-02-19T14:34:44.421Z,50.875317
2023-02-19T14:35:44.487Z,50.875309
2023-02-19T14:36:44.409Z,50.875259
2023-02-19T14:37:44.431Z,50.875263
2023-02-19T14:38:44.404Z,50.875290
2023-02-19T14:39:44.365Z,50.875244
2023-02-19T14:40:44.374Z,50.875301
2023-02-19T14:41:44.386Z,50.875504
2023-02-19T14:42:44.347Z,50.875553
2023-02-19T14:43:44.338Z,50.875408
2023-02-19T14:44:44.316Z,50.875317
2023-02-19T14:45:44.318Z,50.875256
2023-02-19T14:46:44.367Z,50.875568
2023-02-19T14:47:44.316Z,50.875465
2023-02-19T14:48:44.376Z,50.875481
2023-02-19T14:49:44.276Z,50.875614
2023-02-19T14:50:44.274Z,50.875332
2023-02-19T14:51:44.294Z,50.875423
2023-02-19T14:52:44.261Z,50.875324
2023-02-19T14:53:44.245Z,50.875298
2023-02-19T14:54:44.229Z,50.875324
2023-02-19T14:55:44.171Z,50.875427
2023-02-19T14:56:44.204Z,50.875431
2023-02-19T14:57:44.214Z,50.875507
2023-02-19T14:58:44.218Z,50.875526
2023-02-19T14:59:44.199Z,50.875504
2023-02-19T15:00:44.170Z,50.875473
2023-02-19T15:01:44.167Z,50.875629
2023-02-19T15:02:44.192Z,50.875362
2023-02-19T15:03:44.128Z,50.875237
2023-02-19T15:04:44.171Z,50.875500
2023-02-19T15:05:44.111Z,50.875366
2023-02-19T15:06:44.145Z,50.875675
2023-02-19T15:07:44.114Z,50.875576
2023-02-19T15:08:44.107Z,50.875633
2023-02-19T15:09:44.075Z,50.875931
2023-02-19T15:10:44.061Z,50.875938
2023-02-19T15:11:44.080Z,50.875610
2023-02-19T15:12:44.062Z,50.875351
2023-02-19T15:13:44.096Z,50.875290
2023-02-19T15:14:44.015Z,50.875309
2023-02-19T15:15:44.082Z,50.875309
2023-02-19T15:16:44.027Z,50.875488
2023-02-19T15:17:44.006Z,50.875488
2023-02-19T15:18:43.993Z,50.875477
2023-02-19T15:19:43.998Z,50.875420
2023-02-19T15:20:44.111Z,50.875469
2023-02-19T15:21:43.959Z,50.875450
2023-02-19T15:22:43.983Z,50.875462
2023-02-19T15:23:43.963Z,50.875694
2023-02-19T15:24:43.925Z,50.875412
2023-02-19T15:25:43.911Z,50.875465
2023-02-19T15:26:43.907Z,50.875450
2023-02-19T15:27:43.934Z,50.875435
2023-02-19T15:28:43.875Z,50.875267
2023-02-19T15:29:43.871Z,50.875378
2023-02-19T15:30:43.894Z,50.875408
2023-02-19T15:31:43.883Z,50.875496
2023-02-19T15:32:43.861Z,50.875385
2023-02-19T15:33:43.829Z,50.875343
2023-02-19T15:34:43.834Z,50.875397
2023-02-19T15:35:43.832Z,50.875397
2023-02-19T15:36:43.820Z,50.875435
2023-02-19T15:37:43.819Z,50.875553
2023-02-19T15:38:43.787Z,50.875290
2023-02-19T15:39:43.791Z,50.875366
2023-02-19T15:40:43.766Z,50.875336
2023-02-19T15:41:43.757Z,50.875443
2023-02-19T15:42:43.771Z,50.875359
2023-02-19T15:43:43.729Z,50.875439
2023-02-19T15:44:44.758Z,50.875439
2023-02-19T15:45:43.734Z,50.875336
2023-02-19T15:46:43.765Z,50.875404
2023-02-19T15:47:43.708Z,50.875290
2023-02-19T15:48:43.678Z,50.875336